createdAt,value
2023-02-17T00:01:10.641Z,100.00
2023-02-17T00:03:38.231Z,100.00
2023-02-17T00:06:07.992Z,100.00
2023-02-17T00:08:35.886Z,100.00
2023-02-17T00:11:05.480Z,100.00
2023-02-17T00:13:33.073Z,100.00
2023-02-17T00:16:00.795Z,100.00
2023-02-17T00:18:28.332Z,100.00
2023-02-17T00:20:55.823Z,100.00
2023-02-17T00:23:23.292Z,100.00
2023-02-17T00:25:50.712Z,100.00
2023-02-17T00:28:19.598Z,100.00
2023-02-17T00:30:47.080Z,100.00
2023-02-17T00:33:14.532Z,100.00
2023-02-17T00:35:42.559Z,100.00
2023-02-17T00:38:09.942Z,100.00
2023-02-17T00:40:38.857Z,100.00
2023-02-17T00:43:06.849Z,100.00
2023-02-17T00:45:35.680Z,100.00
2023-02-17T00:48:03.342Z,100.00
2023-02-17T00:50:30.835Z,100.00
2023-02-17T00:52:58.289Z,100.00
2023-02-17T00:55:26.650Z,100.00
2023-02-17T00:57:54.110Z,100.00
2023-02-17T01:00:21.842Z,100.00
2023-02-17T01:02:50.811Z,100.00
2023-02-17T01:05:18.530Z,100.00
2023-02-17T01:07:46.088Z,100.00
2023-02-17T01:10:13.908Z,100.00
2023-02-17T01:12:41.459Z,100.00
2023-02-17T01:15:09.536Z,100.00
2023-02-17T01:17:37.055Z,100.00
2023-02-17T01:20:07.546Z,100.00
2023-02-17T01:22:35.296Z,100.00
2023-02-17T01:25:02.910Z,100.00
2023-02-17T01:27:30.531Z,100.00
2023-02-17T01:29:57.970Z,100.00
2023-02-17T01:32:25.725Z,100.00
2023-02-17T01:34:53.127Z,100.00
2023-02-17T01:37:22.174Z,100.00
2023-02-17T01:39:49.687Z,100.00
2023-02-17T01:42:17.961Z,100.00
2023-02-17T01:45:28.648Z,100.00
2023-02-17T01:47:59.623Z,100.00
2023-02-17T01:50:31.699Z,100.00
2023-02-17T01:53:02.734Z,100.00
2023-02-17T01:55:30.655Z,100.00
2023-02-17T01:57:59.462Z,100.00
2023-02-17T02:00:29.795Z,100.00
2023-02-17T02:02:58.169Z,100.00
2023-02-17T02:05:25.660Z,100.00
2023-02-17T02:07:53.552Z,100.00
2023-02-17T02:10:22.769Z,100.00
2023-02-17T02:12:50.348Z,100.00
2023-02-17T02:15:19.979Z,100.00
2023-02-17T02:18:00.569Z,100.00
2023-02-17T02:21:04.715Z,100.00
2023-02-17T02:23:45.717Z,100.00
2023-02-17T02:26:49.782Z,100.00
2023-02-17T02:29:41.910Z,100.00
2023-02-17T02:32:25.571Z,100.00
2023-02-17T02:34:57.320Z,100.00
2023-02-17T02:37:28.328Z,100.00
2023-02-17T02:39:56.485Z,100.00
2023-02-17T02:42:25.534Z,100.00
2023-02-17T02:44:53.117Z,100.00
2023-02-17T02:47:45.157Z,100.00
2023-02-17T02:50:15.934Z,100.00
2023-02-17T02:52:50.016Z,100.00
2023-02-17T02:55:21.421Z,100.00
2023-02-17T02:57:54.270Z,100.00
2023-02-17T03:00:26.049Z,100.00
2023-02-17T03:02:58.960Z,100.00
2023-02-17T03:05:29.903Z,100.00
2023-02-17T03:08:00.476Z,100.00
2023-02-17T03:10:28.120Z,100.00
2023-02-17T03:12:56.284Z,100.00
2023-02-17T03:15:28.000Z,100.00
2023-02-17T03:17:58.864Z,100.00
2023-02-17T03:20:27.085Z,100.00
2023-02-17T03:22:54.686Z,100.00
2023-02-17T03:25:22.080Z,100.00
2023-02-17T03:27:49.601Z,100.00
2023-02-17T03:30:17.149Z,100.00
2023-02-17T03:32:44.808Z,100.00
2023-02-17T03:35:13.890Z,100.00
2023-02-17T03:37:41.401Z,100.00
2023-02-17T03:40:09.896Z,100.00
2023-02-17T03:42:37.433Z,100.00
2023-02-17T03:45:05.712Z,100.00
2023-02-17T03:47:33.307Z,100.00
2023-02-17T03:50:00.784Z,100.00
2023-02-17T03:52:29.699Z,100.00
2023-02-17T03:54:57.082Z,100.00
2023-02-17T03:57:24.478Z,100.00
2023-02-17T03:59:51.854Z,100.00
2023-02-17T04:02:19.356Z,100.00
2023-02-17T04:04:46.764Z,100.00
2023-02-17T04:07:14.375Z,100.00
2023-02-17T04:09:43.166Z,100.00
2023-02-17T04:12:10.649Z,100.00
2023-02-17T04:14:37.985Z,100.00
2023-02-17T04:17:05.416Z,100.00
2023-02-17T04:19:32.805Z,100.00
2023-02-17T04:22:00.260Z,100.00
2023-02-17T04:24:27.882Z,100.00
2023-02-17T04:26:56.881Z,100.00
2023-02-17T04:29:24.499Z,100.00
2023-02-17T04:31:52.145Z,100.00
2023-02-17T04:34:20.087Z,100.00
2023-02-17T04:36:47.752Z,100.00
2023-02-17T04:39:15.356Z,100.00
2023-02-17T04:41:42.937Z,100.00
2023-02-17T04:44:11.863Z,100.00
2023-02-17T04:46:39.468Z,100.00
2023-02-17T04:49:07.058Z,100.00
2023-02-17T04:51:34.833Z,100.00
2023-02-17T04:54:04.433Z,100.00
2023-02-17T04:56:32.134Z,100.00
2023-02-17T04:58:59.812Z,100.00
2023-02-17T05:01:28.863Z,100.00
2023-02-17T05:03:56.497Z,100.00
2023-02-17T05:06:24.161Z,100.00
2023-02-17T05:08:53.743Z,100.00
2023-02-17T05:11:21.563Z,100.00
2023-02-17T05:13:49.552Z,100.00
2023-02-17T05:16:17.188Z,100.00
2023-02-17T05:18:46.579Z,100.00
2023-02-17T05:21:14.140Z,100.00
2023-02-17T05:23:43.523Z,100.00
2023-02-17T05:26:11.572Z,100.00
2023-02-17T05:28:39.243Z,100.00
2023-02-17T05:31:07.026Z,100.00
2023-02-17T05:33:34.790Z,100.00
2023-02-17T05:36:07.124Z,100.00
2023-02-17T05:38:35.134Z,100.00
2023-02-17T05:41:03.695Z,100.00
2023-02-17T05:43:32.517Z,100.00
2023-02-17T05:46:03.469Z,100.00
2023-02-17T05:48:33.326Z,100.00
2023-02-17T05:51:01.014Z,100.00
2023-02-17T05:53:30.023Z,100.00
2023-02-17T05:58:39.434Z,100.00
2023-02-17T06:01:09.337Z,100.00
2023-02-17T06:03:37.187Z,100.00
2023-02-17T06:06:05.484Z,100.00
2023-02-17T06:08:34.501Z,100.00
2023-02-17T06:13:53.456Z,100.00
2023-02-17T06:16:20.953Z,100.00
2023-02-17T06:18:48.622Z,100.00
2023-02-17T06:21:16.803Z,100.00
2023-02-17T06:23:45.796Z,100.00
2023-02-17T06:26:14.214Z,100.00
2023-02-17T06:28:41.782Z,100.00
2023-02-17T06:31:09.277Z,100.00
2023-02-17T06:33:37.436Z,100.00
2023-02-17T06:36:10.793Z,100.00
2023-02-17T06:38:38.409Z,100.00
2023-02-17T06:41:07.433Z,100.00
2023-02-17T06:43:35.058Z,100.00
2023-02-17T06:46:03.241Z,100.00
2023-02-17T06:48:32.995Z,100.00
2023-02-17T06:51:00.541Z,100.00
2023-02-17T06:53:28.015Z,100.00
2023-02-17T06:55:56.179Z,100.00
2023-02-17T06:58:25.016Z,100.00
2023-02-17T07:00:52.891Z,100.00
2023-02-17T07:03:20.482Z,100.00
2023-02-17T07:05:48.024Z,100.00
2023-02-17T07:08:15.607Z,100.00
2023-02-17T07:10:44.310Z,100.00
2023-02-17T07:13:12.012Z,100.00
2023-02-17T07:15:41.043Z,100.00
2023-02-17T07:18:08.578Z,100.00
2023-02-17T07:20:38.230Z,100.00
2023-02-17T07:23:06.716Z,100.00
2023-02-17T07:25:34.411Z,100.00
2023-02-17T07:28:02.183Z,100.00
2023-02-17T07:30:29.928Z,100.00
2023-02-17T07:32:59.191Z,100.00
2023-02-17T07:35:27.482Z,100.00
2023-02-17T07:37:55.555Z,100.00
2023-02-17T07:40:23.184Z,100.00
2023-02-17T07:42:50.768Z,100.00
2023-02-17T07:45:18.959Z,100.00
2023-02-17T07:47:46.984Z,100.00
2023-02-17T07:50:16.223Z,100.00
2023-02-17T07:52:45.162Z,100.00
2023-02-17T07:55:13.172Z,100.00
2023-02-17T07:57:41.181Z,100.00
2023-02-17T08:00:11.003Z,100.00
2023-02-17T08:02:38.727Z,100.00
2023-02-17T08:05:06.827Z,100.00
2023-02-17T08:07:35.855Z,100.00
2023-02-17T08:10:21.079Z,100.00
2023-02-17T08:13:06.236Z,100.00
2023-02-17T08:15:35.454Z,100.00
2023-02-17T08:18:04.957Z,100.00
2023-02-17T08:20:35.232Z,100.00
2023-02-17T08:23:04.801Z,100.00
2023-02-17T08:25:33.700Z,100.00
2023-02-17T08:28:03.984Z,100.00
2023-02-17T08:30:31.714Z,100.00
2023-02-17T08:32:59.371Z,100.00
2023-02-17T08:35:27.107Z,100.00
2023-02-17T08:37:54.917Z,100.00
2023-02-17T08:40:24.428Z,100.00
2023-02-17T08:42:51.968Z,100.00
2023-02-17T08:45:20.083Z,100.00
2023-02-17T08:47:50.978Z,100.00
2023-02-17T08:50:20.023Z,100.00
2023-02-17T08:52:47.759Z,100.00
2023-02-17T08:55:18.433Z,100.00
2023-02-17T08:57:47.231Z,100.00
2023-02-17T09:00:15.920Z,100.00
2023-02-17T09:02:44.976Z,100.00
2023-02-17T09:05:13.751Z,100.00
2023-02-17T09:07:41.757Z,100.00
2023-02-17T09:10:11.138Z,100.00
2023-02-17T09:12:38.972Z,100.00
2023-02-17T09:15:09.175Z,100.00
2023-02-17T09:17:40.187Z,100.00
2023-02-17T09:20:23.839Z,100.00
2023-02-17T09:22:53.026Z,100.00
2023-02-17T09:25:20.525Z,100.00
2023-02-17T09:27:48.561Z,100.00
2023-02-17T09:30:17.838Z,100.00
2023-02-17T09:32:45.793Z,100.00
2023-02-17T09:35:14.149Z,100.00
2023-02-17T09:37:41.709Z,100.00
2023-02-17T09:40:10.534Z,100.00
2023-02-17T09:42:41.129Z,100.00
2023-02-17T09:45:12.903Z,100.00
2023-02-17T09:47:46.130Z,100.00
2023-02-17T09:50:17.349Z,100.00
2023-02-17T09:52:49.155Z,100.00
2023-02-17T09:55:19.553Z,100.00
2023-02-17T09:57:50.933Z,100.00
2023-02-17T10:00:22.728Z,100.00
2023-02-17T10:02:56.644Z,100.00
2023-02-17T10:05:28.321Z,100.00
2023-02-17T10:08:00.965Z,100.00
2023-02-17T10:10:31.262Z,100.00
2023-02-17T10:13:01.649Z,100.00
2023-02-17T10:15:33.000Z,100.00
2023-02-17T10:18:07.471Z,100.00
2023-02-17T10:20:38.137Z,100.00
2023-02-17T10:23:10.616Z,100.00
2023-02-17T10:25:55.295Z,100.00
2023-02-17T10:28:30.772Z,100.00
2023-02-17T10:31:04.793Z,100.00
2023-02-17T10:33:37.338Z,100.00
2023-02-17T10:36:13.288Z,100.00
2023-02-17T10:38:51.525Z,100.00
2023-02-17T10:41:28.343Z,100.00
2023-02-17T10:43:56.169Z,100.00
2023-02-17T10:46:28.596Z,100.00
2023-02-17T10:48:58.969Z,100.00
2023-02-17T10:51:28.563Z,100.00
2023-02-17T10:53:59.322Z,100.00
2023-02-17T10:56:30.212Z,100.00
2023-02-17T10:59:01.050Z,100.00
2023-02-17T11:01:29.654Z,100.00
2023-02-17T11:04:03.894Z,100.00
2023-02-17T11:06:31.957Z,100.00
2023-02-17T11:09:01.940Z,100.00
2023-02-17T11:11:31.612Z,100.00
2023-02-17T11:14:10.271Z,100.00
2023-02-17T11:16:40.109Z,100.00
2023-02-17T11:19:22.287Z,100.00
2023-02-17T11:21:51.480Z,100.00
2023-02-17T11:24:19.135Z,100.00
2023-02-17T11:26:57.180Z,100.00
2023-02-17T11:29:25.334Z,100.00
2023-02-17T11:31:57.825Z,100.00
2023-02-17T11:34:29.530Z,100.00
2023-02-17T11:37:02.744Z,100.00
2023-02-17T11:39:30.761Z,100.00
2023-02-17T11:41:58.708Z,100.00
2023-02-17T11:44:27.255Z,100.00
2023-02-17T11:47:11.421Z,100.00
2023-02-17T11:50:08.624Z,100.00
2023-02-17T11:52:50.674Z,100.00
2023-02-17T11:55:24.215Z,100.00
2023-02-17T11:58:05.454Z,100.00
2023-02-17T12:00:40.310Z,100.00
2023-02-17T12:03:22.712Z,100.00
2023-02-17T12:06:02.290Z,100.00
2023-02-17T12:08:39.478Z,100.00
2023-02-17T12:11:13.465Z,100.00
2023-02-17T12:13:50.384Z,100.00
2023-02-17T12:16:25.344Z,100.00
2023-02-17T12:19:04.590Z,100.00
2023-02-17T12:21:53.405Z,100.00
2023-02-17T12:24:33.321Z,100.00
2023-02-17T12:27:06.555Z,100.00
2023-02-17T12:29:50.938Z,100.00
2023-02-17T12:32:28.561Z,100.00
2023-02-17T12:34:59.382Z,100.00
2023-02-17T12:37:31.926Z,100.00
2023-02-17T12:40:02.483Z,100.00
2023-02-17T12:42:33.524Z,100.00
2023-02-17T12:45:05.133Z,100.00
2023-02-17T12:47:39.171Z,100.00
2023-02-17T12:50:17.496Z,100.00
2023-02-17T12:52:49.965Z,100.00
2023-02-17T12:55:24.113Z,100.00
2023-02-17T12:57:58.291Z,100.00
2023-02-17T13:00:31.448Z,100.00
2023-02-17T13:03:00.498Z,100.00
2023-02-17T13:08:39.751Z,100.00
2023-02-17T13:14:33.400Z,100.00
2023-02-17T13:17:03.313Z,100.00
2023-02-17T13:19:35.037Z,100.00
2023-02-17T13:22:06.313Z,100.00
2023-02-17T13:27:45.989Z,100.00
2023-02-17T13:30:50.036Z,100.00
2023-02-17T13:40:03.942Z,100.00
2023-02-17T13:46:33.341Z,100.00
2023-02-17T16:59:31.117Z,91.84
2023-02-17T17:02:13.553Z,92.19
2023-02-17T17:13:13.753Z,90.44
2023-02-17T17:15:53.775Z,90.22
2023-02-17T17:18:23.750Z,89.95
2023-02-17T17:20:51.300Z,89.55
2023-02-17T17:23:19.217Z,89.54
2023-02-17T17:25:48.527Z,89.62
2023-02-17T17:29:00.282Z,89.87
2023-02-17T17:34:05.327Z,89.40
2023-02-17T17:36:35.092Z,89.60
2023-02-17T17:39:04.208Z,89.55
2023-02-17T17:41:31.667Z,89.24
2023-02-17T17:43:59.593Z,88.90
2023-02-17T17:46:31.023Z,88.24
2023-02-17T17:59:39.171Z,86.89
2023-02-17T19:15:03.959Z,85.61
2023-02-17T19:36:12.025Z,85.02
2023-02-17T19:38:39.596Z,84.77
2023-02-17T19:41:09.480Z,84.22
2023-02-17T19:43:37.158Z,84.55
2023-02-17T19:46:05.197Z,85.13
2023-02-17T19:48:33.157Z,85.01
2023-02-17T19:51:02.846Z,85.02
2023-02-17T19:53:33.557Z,84.77
2023-02-17T19:56:36.373Z,85.13
2023-02-17T19:59:06.098Z,85.00
2023-02-17T20:01:34.826Z,85.10
2023-02-17T20:06:50.459Z,85.30
2023-02-17T20:42:04.251Z,86.11
2023-02-17T20:44:31.950Z,85.86
2023-02-17T20:46:59.865Z,85.79
2023-02-17T20:49:28.562Z,86.23
2023-02-17T20:51:56.875Z,85.51
2023-02-17T20:54:28.928Z,85.44
2023-02-17T20:57:01.439Z,85.21
2023-02-17T20:59:52.056Z,85.58
2023-02-17T21:27:58.232Z,85.30
2023-02-17T21:30:26.516Z,85.11
2023-02-17T21:59:12.055Z,85.55
2023-02-17T22:01:42.265Z,85.43
2023-02-17T22:04:12.158Z,85.63
2023-02-17T22:15:03.464Z,85.12
2023-02-17T22:17:31.060Z,85.75
2023-02-17T22:22:54.546Z,85.32
2023-02-17T22:25:23.642Z,85.34
2023-02-17T22:27:51.173Z,85.46
2023-02-17T22:30:20.543Z,85.54
2023-02-17T22:35:29.492Z,85.00
2023-02-17T22:37:57.592Z,85.02
2023-02-17T22:40:25.171Z,84.83
2023-02-17T22:42:52.757Z,84.45
2023-02-17T22:45:21.638Z,84.43
2023-02-17T22:47:49.212Z,84.87
2023-02-17T22:50:17.652Z,85.01
2023-02-17T22:52:45.243Z,84.63
2023-02-17T22:55:12.769Z,84.57
2023-02-17T22:57:40.393Z,85.03
2023-02-17T23:00:09.942Z,85.13
2023-02-17T23:02:39.064Z,84.57
2023-02-17T23:05:07.159Z,84.37
2023-02-17T23:07:34.869Z,84.65
2023-02-17T23:10:04.290Z,84.62
2023-02-17T23:12:31.940Z,84.44
2023-02-17T23:14:59.633Z,84.08
2023-02-17T23:17:27.436Z,84.41
2023-02-17T23:19:56.668Z,84.14
2023-02-17T23:22:25.572Z,84.47
2023-02-17T23:24:53.215Z,84.52
2023-02-17T23:27:20.838Z,84.34
2023-02-17T23:29:48.380Z,84.53
2023-02-17T23:32:15.917Z,84.36
2023-02-17T23:34:43.444Z,84.35
2023-02-17T23:37:13.280Z,84.73
